Time;durP1;ratioP1;P1;durP2;ratioP2;P2;SDS_P1;SDS_P2;PMS_P1;PMS_P2;Temp;Humidity;BMP_temperature;BMP_pressure;BME280_temperature;BME280_humidity;BME280_pressure;Samples;Min_cycle;Max_cycle;Signal;HPM_P1;HPM_P2
2022/05/24 00:00:12;;;;;;;0.00;0.00;;;13.10;89.70;;;;;;5074021;28;20044;-68
2022/05/24 00:02:39;;;;;;;0.00;0.00;;;13.10;89.80;;;;;;5083653;28;20039;-68
2022/05/24 00:05:05;;;;;;;0.00;0.00;;;13.10;89.90;;;;;;5082131;28;20524;-68
2022/05/24 00:07:31;;;;;;;0.00;0.00;;;13.10;89.80;;;;;;5086312;28;20040;-68
2022/05/24 00:09:57;;;;;;;0.00;0.00;;;13.10;89.80;;;;;;5078999;28;20051;-68
2022/05/24 00:12:22;;;;;;;0.00;0.00;;;13.00;89.70;;;;;;5070930;28;20052;-68
2022/05/24 00:17:33;;;;;;;0.00;0.00;;;13.00;89.80;;;;;;5073648;28;20060;-68
2022/05/24 00:20:00;;;;;;;0.00;0.00;;;12.90;89.70;;;;;;5085744;28;20048;-68
2022/05/24 00:22:26;;;;;;;0.00;0.00;;;12.90;89.70;;;;;;5070626;28;20040;-68
2022/05/24 00:24:51;;;;;;;0.00;0.00;;;12.80;89.70;;;;;;5083989;28;20098;-69
2022/05/24 00:27:17;;;;;;;0.00;0.00;;;12.80;89.70;;;;;;5078963;28;20037;-69
2022/05/24 00:29:42;;;;;;;0.00;0.00;;;12.70;89.60;;;;;;5069267;28;20036;-68
2022/05/24 00:32:08;;;;;;;0.00;0.00;;;12.70;89.70;;;;;;5072989;28;20093;-69
2022/05/24 00:34:34;;;;;;;0.10;0.10;;;12.70;89.80;;;;;;5070580;28;20040;-68
2022/05/24 00:36:59;;;;;;;0.10;0.10;;;12.70;90.00;;;;;;5069304;28;20100;-68
2022/05/24 00:39:25;;;;;;;0.00;0.00;;;12.80;90.10;;;;;;5085810;28;20109;-68
2022/05/24 00:42:01;;;;;;;0.00;0.00;;;12.80;90.30;;;;;;5088038;28;20032;-67
2022/05/24 00:44:26;;;;;;;0.47;0.47;;;12.80;90.40;;;;;;5079501;28;20489;-68
2022/05/24 00:47:11;;;;;;;0.00;0.00;;;12.90;90.60;;;;;;5078467;28;20040;-67
2022/05/24 00:49:48;;;;;;;0.35;0.35;;;13.00;90.60;;;;;;5075660;28;20032;-67
2022/05/24 00:52:13;;;;;;;0.00;0.00;;;13.00;90.70;;;;;;5086112;28;20047;-67
2022/05/24 00:54:40;;;;;;;0.00;0.00;;;13.10;90.70;;;;;;5075915;28;20051;-67
2022/05/24 00:57:30;;;;;;;0.00;0.00;;;13.10;90.60;;;;;;5078877;28;20068;-66
2022/05/24 01:00:18;;;;;;;0.00;0.00;;;13.20;90.50;;;;;;5080810;28;20043;-67
2022/05/24 01:02:44;;;;;;;0.00;0.00;;;13.20;90.40;;;;;;5080976;28;20044;-67
2022/05/24 01:05:13;;;;;;;0.00;0.00;;;13.20;90.40;;;;;;5077127;28;20028;-68
2022/05/24 01:07:39;;;;;;;0.00;0.00;;;13.20;90.30;;;;;;5086734;28;20048;-68
2022/05/24 01:10:10;;;;;;;0.00;0.00;;;13.30;90.20;;;;;;5082770;28;20036;-67
2022/05/24 01:13:06;;;;;;;0.00;0.00;;;13.30;90.20;;;;;;5077014;28;20090;-68
2022/05/24 01:15:32;;;;;;;0.00;0.00;;;13.30;90.00;;;;;;5069304;28;20566;-67
2022/05/24 01:17:59;;;;;;;0.00;0.00;;;13.30;89.90;;;;;;5083735;28;20060;-67
2022/05/24 01:20:25;;;;;;;0.00;0.00;;;13.20;90.10;;;;;;5080283;28;20492;-67
2022/05/24 01:23:20;;;;;;;0.00;0.00;;;13.30;90.00;;;;;;5086846;28;20126;-67
2022/05/24 01:26:00;;;;;;;0.00;0.00;;;13.30;89.90;;;;;;5087824;28;20517;-67
2022/05/24 01:28:38;;;;;;;0.00;0.00;;;13.40;89.80;;;;;;5086099;28;20051;-68
2022/05/24 01:31:04;;;;;;;0.00;0.00;;;13.40;89.80;;;;;;5068818;28;20113;-67
2022/05/24 01:36:16;;;;;;;0.00;0.00;;;13.40;90.00;;;;;;5068816;28;20056;-68
2022/05/24 01:38:56;;;;;;;0.00;0.00;;;13.40;90.00;;;;;;5068736;28;20040;-68
2022/05/24 01:41:33;;;;;;;0.00;0.00;;;13.50;89.90;;;;;;5069746;28;20040;-67
2022/05/24 01:44:00;;;;;;;0.00;0.00;;;13.50;90.10;;;;;;5079432;28;20079;-68
2022/05/24 01:46:32;;;;;;;0.20;0.20;;;13.50;90.20;;;;;;5081925;28;20530;-67
2022/05/24 01:49:02;;;;;;;0.00;0.00;;;13.60;90.20;;;;;;5075368;28;20033;-68
2022/05/24 01:51:35;;;;;;;0.00;0.00;;;13.50;90.40;;;;;;5088854;28;20043;-67
2022/05/24 01:54:02;;;;;;;0.00;0.00;;;13.60;90.50;;;;;;5086584;28;20040;-68
2022/05/24 01:56:49;;;;;;;0.95;0.55;;;13.60;90.40;;;;;;5090903;28;20052;-67
2022/05/24 01:59:17;;;;;;;0.10;0.10;;;13.60;90.40;;;;;;5091305;28;20160;-67
2022/05/24 02:01:55;;;;;;;0.00;0.00;;;13.70;90.10;;;;;;5074658;28;20102;-67
2022/05/24 02:04:23;;;;;;;0.05;0.05;;;13.70;90.00;;;;;;5085580;28;20160;-67
2022/05/24 02:07:19;;;;;;;0.00;0.00;;;13.70;90.10;;;;;;5083842;28;20048;-67
2022/05/24 02:09:51;;;;;;;0.10;0.10;;;13.60;90.30;;;;;;5084376;28;20056;-68
2022/05/24 02:12:26;;;;;;;0.00;0.00;;;13.70;90.30;;;;;;5073501;28;20041;-67
2022/05/24 02:15:10;;;;;;;0.63;0.63;;;13.70;90.30;;;;;;5081861;28;20052;-67
2022/05/24 02:17:44;;;;;;;0.00;0.00;;;13.70;90.30;;;;;;5088514;28;20080;-67
2022/05/24 02:20:14;;;;;;;0.00;0.00;;;13.70;90.30;;;;;;5083978;28;20084;-68
2022/05/24 02:22:41;;;;;;;0.00;0.00;;;13.80;90.30;;;;;;5081154;28;20087;-68
2022/05/24 02:25:12;;;;;;;0.00;0.00;;;13.70;90.40;;;;;;5090386;28;20048;-67
2022/05/24 02:27:42;;;;;;;0.45;0.45;;;13.80;90.40;;;;;;5083684;28;20137;-68
2022/05/24 02:30:10;;;;;;;0.20;0.20;;;13.80;90.20;;;;;;5078242;28;20044;-68
2022/05/24 02:32:35;;;;;;;0.50;0.50;;;13.80;90.10;;;;;;5077302;28;20049;-68
2022/05/24 02:35:01;;;;;;;3.03;0.32;;;13.90;90.00;;;;;;5071211;28;20511;-68
2022/05/24 02:37:26;;;;;;;0.00;0.00;;;13.80;90.10;;;;;;5073807;28;20044;-68
2022/05/24 02:42:36;;;;;;;0.17;0.17;;;13.90;90.10;;;;;;5081547;28;20395;-68
2022/05/24 02:45:02;;;;;;;0.00;0.00;;;13.90;90.00;;;;;;5084331;28;20047;-68
2022/05/24 02:47:28;;;;;;;0.32;0.32;;;13.80;90.10;;;;;;5087033;28;20071;-68
2022/05/24 02:49:53;;;;;;;0.00;0.00;;;13.80;89.90;;;;;;5070884;28;20492;-67
2022/05/24 02:52:19;;;;;;;0.10;0.10;;;13.80;89.80;;;;;;5078560;28;20047;-67
2022/05/24 02:54:44;;;;;;;0.32;0.32;;;13.90;89.70;;;;;;5090975;28;20032;-68
2022/05/24 02:57:10;;;;;;;0.10;0.10;;;13.80;89.70;;;;;;5083740;28;20036;-68
2022/05/24 02:59:35;;;;;;;0.60;0.60;;;13.90;89.60;;;;;;5071400;28;20040;-69
2022/05/24 03:02:04;;;;;;;0.00;0.00;;;13.80;89.50;;;;;;5081029;28;20757;-69
2022/05/24 03:04:29;;;;;;;0.40;0.40;;;13.80;89.60;;;;;;5089569;28;20101;-67
2022/05/24 03:09:56;;;;;;;0.57;0.57;;;13.70;89.80;;;;;;5077158;28;20564;-68
2022/05/24 03:15:07;;;;;;;0.00;0.00;;;13.70;89.80;;;;;;5072931;28;20131;-67
2022/05/24 03:17:32;;;;;;;0.00;0.00;;;13.70;89.70;;;;;;5074802;28;20059;-68
2022/05/24 03:19:58;;;;;;;0.00;0.00;;;13.60;89.90;;;;;;5077815;28;20048;-68
2022/05/24 03:22:23;;;;;;;0.08;0.08;;;13.60;89.80;;;;;;5089781;28;20051;-68
2022/05/24 03:24:49;;;;;;;0.00;0.00;;;13.60;89.90;;;;;;5078733;28;20074;-68
2022/05/24 03:27:15;;;;;;;0.68;0.68;;;13.60;89.80;;;;;;5075120;28;20047;-68
2022/05/24 03:29:42;;;;;;;0.00;0.00;;;13.60;89.60;;;;;;5078227;28;20048;-68
2022/05/24 03:32:09;;;;;;;0.00;0.00;;;13.60;89.70;;;;;;5072799;28;20045;-68
2022/05/24 03:34:36;;;;;;;0.00;0.00;;;13.60;89.60;;;;;;5080213;28;20509;-69
2022/05/24 03:37:02;;;;;;;0.00;0.00;;;13.60;89.60;;;;;;5083922;28;20104;-69
2022/05/24 03:39:27;;;;;;;0.00;0.00;;;13.50;89.60;;;;;;5072139;28;20082;-68
2022/05/24 03:41:53;;;;;;;0.00;0.00;;;13.50;89.40;;;;;;5077116;28;20045;-68
2022/05/24 03:44:19;;;;;;;0.08;0.08;;;13.60;89.40;;;;;;5074317;28;20043;-68
2022/05/24 03:46:45;;;;;;;0.00;0.00;;;13.50;89.30;;;;;;5071419;28;20754;-69
2022/05/24 03:49:11;;;;;;;0.00;0.00;;;13.50;89.10;;;;;;5082948;28;20045;-69
2022/05/24 03:51:37;;;;;;;0.00;0.00;;;13.50;89.00;;;;;;5070088;28;20037;-69
2022/05/24 03:54:02;;;;;;;0.00;0.00;;;13.40;89.10;;;;;;5072199;28;20048;-67
2022/05/24 03:56:29;;;;;;;0.00;0.00;;;13.40;89.00;;;;;;5083971;28;20044;-67
2022/05/24 03:58:55;;;;;;;0.00;0.00;;;13.40;89.00;;;;;;5070916;28;20052;-68
2022/05/24 04:01:20;;;;;;;0.00;0.00;;;13.40;89.00;;;;;;5071080;28;20409;-68
2022/05/24 04:03:46;;;;;;;0.00;0.00;;;13.40;89.00;;;;;;5073339;28;20049;-68
2022/05/24 04:06:11;;;;;;;0.00;0.00;;;13.30;89.00;;;;;;5074733;28;20032;-68
2022/05/24 04:08:37;;;;;;;0.00;0.00;;;13.30;89.00;;;;;;5069853;28;20033;-68
2022/05/24 04:11:09;;;;;;;0.00;0.00;;;13.30;89.00;;;;;;5073178;28;20151;-68
2022/05/24 04:13:37;;;;;;;0.00;0.00;;;13.40;89.00;;;;;;5078693;28;20052;-68
2022/05/24 04:16:03;;;;;;;0.00;0.00;;;13.30;88.90;;;;;;5069844;28;20133;-68
2022/05/24 04:18:29;;;;;;;0.00;0.00;;;13.30;88.90;;;;;;5069019;28;20421;-68
2022/05/24 04:20:55;;;;;;;0.00;0.00;;;13.30;88.90;;;;;;5073511;28;20038;-68
2022/05/24 04:23:21;;;;;;;0.00;0.00;;;13.30;89.00;;;;;;5087811;28;20078;-68
2022/05/24 04:25:48;;;;;;;0.00;0.00;;;13.30;89.00;;;;;;5081821;28;20036;-68
2022/05/24 04:28:14;;;;;;;0.20;0.20;;;13.20;89.00;;;;;;5080206;28;20047;-69
2022/05/24 04:30:40;;;;;;;0.00;0.00;;;13.30;88.90;;;;;;5088037;28;20048;-69
2022/05/24 04:33:05;;;;;;;0.22;0.22;;;13.20;89.00;;;;;;5073221;28;20505;-68
2022/05/24 04:35:31;;;;;;;0.10;0.10;;;13.30;89.10;;;;;;5069285;28;20046;-69
2022/05/24 04:37:59;;;;;;;0.10;0.10;;;13.30;89.10;;;;;;5079083;28;20059;-68
2022/05/24 04:42:18;;;;;;;0.00;0.00;;;13.30;89.10;;;;;;5078091;28;20052;-69
2022/05/24 04:43:10;;;;;;;0.00;0.00;;;13.30;89.10;;;;;;5074445;28;20051;-68
2022/05/24 04:45:36;;;;;;;0.00;0.00;;;13.30;89.10;;;;;;5082165;28;20036;-68
2022/05/24 04:48:02;;;;;;;0.45;0.45;;;13.40;89.10;;;;;;5080678;28;20040;-68
2022/05/24 04:50:28;;;;;;;0.00;0.00;;;13.30;89.10;;;;;;5081477;28;20051;-68
2022/05/24 04:52:54;;;;;;;0.00;0.00;;;13.40;89.10;;;;;;5078230;28;20535;-68
2022/05/24 04:55:25;;;;;;;0.00;0.00;;;13.40;89.10;;;;;;5079819;28;20052;-69
2022/05/24 04:57:50;;;;;;;0.00;0.00;;;13.40;89.10;;;;;;5094662;28;20527;-68
2022/05/24 05:00:17;;;;;;;0.10;0.10;;;13.40;89.10;;;;;;5073200;28;20048;-68
2022/05/24 05:02:43;;;;;;;0.00;0.00;;;13.40;89.10;;;;;;5082712;28;20401;-69
2022/05/24 05:05:09;;;;;;;0.00;0.00;;;13.40;89.10;;;;;;5088176;28;20043;-69
2022/05/24 05:07:34;;;;;;;0.00;0.00;;;13.50;89.10;;;;;;5072237;28;20516;-68
2022/05/24 05:10:00;;;;;;;0.10;0.10;;;13.50;89.20;;;;;;5081520;28;20049;-68
2022/05/24 05:12:26;;;;;;;0.00;0.00;;;13.50;89.40;;;;;;5068783;28;20127;-68
2022/05/24 05:14:53;;;;;;;0.00;0.00;;;13.50;89.40;;;;;;5069893;28;20084;-68
2022/05/24 05:17:19;;;;;;;0.00;0.00;;;13.60;89.40;;;;;;5071908;28;20133;-68
2022/05/24 05:19:46;;;;;;;0.00;0.00;;;13.60;89.60;;;;;;5069112;28;20528;-69
2022/05/24 05:22:11;;;;;;;0.00;0.00;;;13.60;89.70;;;;;;5081140;28;20118;-69
2022/05/24 05:24:38;;;;;;;0.00;0.00;;;13.60;89.80;;;;;;5077078;28;20072;-68
2022/05/24 05:27:04;;;;;;;0.20;0.20;;;13.70;89.90;;;;;;5077059;28;20040;-68
2022/05/24 05:32:19;;;;;;;0.00;0.00;;;13.70;90.10;;;;;;5089090;28;20060;-69
2022/05/24 05:34:47;;;;;;;0.00;0.00;;;13.70;90.10;;;;;;5078336;28;20032;-68
2022/05/24 05:37:12;;;;;;;0.00;0.00;;;13.70;90.30;;;;;;5092416;28;20097;-68
2022/05/24 05:39:38;;;;;;;0.00;0.00;;;13.70;90.20;;;;;;5078066;28;20404;-68
2022/05/24 05:42:04;;;;;;;0.10;0.10;;;13.60;90.60;;;;;;5081719;28;20514;-67
2022/05/24 05:44:30;;;;;;;0.00;0.00;;;13.60;90.80;;;;;;5094611;28;20039;-67
2022/05/24 05:46:56;;;;;;;0.00;0.00;;;13.70;90.90;;;;;;5078825;28;20792;-68
2022/05/24 05:49:22;;;;;;;0.00;0.00;;;13.60;90.90;;;;;;5075764;28;20723;-68
2022/05/24 05:51:48;;;;;;;0.00;0.00;;;13.70;91.10;;;;;;5080337;28;20122;-69
2022/05/24 05:54:13;;;;;;;0.52;0.52;;;13.70;91.10;;;;;;5076275;28;20664;-68
2022/05/24 05:56:40;;;;;;;0.20;0.20;;;13.70;91.20;;;;;;5088196;28;20040;-67
2022/05/24 05:59:06;;;;;;;0.00;0.00;;;13.70;91.10;;;;;;5081358;28;20551;-68
2022/05/24 06:01:32;;;;;;;0.08;0.08;;;13.70;91.00;;;;;;5091219;28;20036;-68
2022/05/24 06:03:59;;;;;;;0.00;0.00;;;13.80;91.00;;;;;;5092019;28;20066;-68
2022/05/24 06:06:29;;;;;;;0.00;0.00;;;13.80;91.00;;;;;;5081867;28;20035;-69
2022/05/24 06:08:55;;;;;;;0.90;0.47;;;13.90;91.00;;;;;;5080706;28;20044;-68
2022/05/24 06:11:22;;;;;;;0.10;0.10;;;13.90;90.90;;;;;;5093615;28;20055;-69
2022/05/24 06:13:48;;;;;;;0.00;0.00;;;13.90;90.70;;;;;;5064206;28;20055;-69
2022/05/24 06:16:14;;;;;;;0.00;0.00;;;13.90;90.50;;;;;;5098454;28;20114;-71
2022/05/24 06:18:40;;;;;;;0.00;0.00;;;13.80;90.20;;;;;;5073571;28;20048;-71
2022/05/24 06:21:06;;;;;;;0.00;0.00;;;13.90;90.20;;;;;;5079556;28;20052;-70
2022/05/24 06:23:31;;;;;;;0.00;0.00;;;13.90;90.20;;;;;;5091929;28;20512;-72
2022/05/24 06:25:57;;;;;;;0.00;0.00;;;13.90;90.20;;;;;;5084661;28;20079;-70
2022/05/24 06:28:23;;;;;;;0.45;0.45;;;13.80;90.00;;;;;;5072985;28;20080;-67
2022/05/24 06:30:49;;;;;;;0.00;0.00;;;13.80;90.10;;;;;;5072350;28;20916;-67
2022/05/24 06:33:15;;;;;;;0.00;0.00;;;13.80;90.00;;;;;;5073253;28;20044;-66
2022/05/24 06:35:41;;;;;;;0.00;0.00;;;13.80;90.10;;;;;;5072318;28;20091;-67
2022/05/24 06:38:07;;;;;;;0.00;0.00;;;13.80;89.70;;;;;;5081490;28;20054;-66
2022/05/24 06:40:33;;;;;;;0.00;0.00;;;13.70;89.50;;;;;;5076600;28;20040;-66
2022/05/24 06:42:59;;;;;;;0.00;0.00;;;13.70;89.30;;;;;;5077631;28;20051;-67
2022/05/24 06:45:25;;;;;;;0.00;0.00;;;13.80;89.10;;;;;;5073557;28;20032;-67
2022/05/24 06:47:51;;;;;;;0.00;0.00;;;13.80;89.00;;;;;;5090129;28;20043;-67
2022/05/24 06:50:17;;;;;;;0.10;0.10;;;13.70;88.60;;;;;;5074835;28;20110;-67
2022/05/24 06:52:43;;;;;;;0.40;0.40;;;13.80;88.60;;;;;;5087404;28;20516;-67
2022/05/24 06:55:10;;;;;;;0.00;0.00;;;13.70;88.30;;;;;;5077578;28;20044;-67
2022/05/24 06:57:35;;;;;;;0.22;0.22;;;13.80;88.20;;;;;;5085011;28;20105;-64
2022/05/24 07:02:49;;;;;;;0.00;0.00;;;13.80;88.00;;;;;;5086669;28;20126;-66
2022/05/24 07:05:20;;;;;;;0.00;0.00;;;13.80;87.70;;;;;;5087756;28;20044;-65
2022/05/24 07:07:45;;;;;;;1.65;0.95;;;13.70;87.50;;;;;;5075718;28;20378;-65
2022/05/24 07:10:15;;;;;;;0.00;0.00;;;13.80;87.50;;;;;;5079815;28;20099;-65
2022/05/24 07:12:41;;;;;;;0.55;0.52;;;13.80;87.20;;;;;;5076730;28;20085;-65
2022/05/24 07:15:08;;;;;;;0.00;0.00;;;13.80;86.90;;;;;;5078052;28;20094;-65
2022/05/24 07:17:34;;;;;;;0.00;0.00;;;13.80;86.90;;;;;;5070892;28;20056;-65
2022/05/24 07:20:00;;;;;;;0.05;0.05;;;13.80;86.90;;;;;;5081443;28;20104;-65
2022/05/24 07:22:25;;;;;;;0.00;0.00;;;13.90;86.80;;;;;;5086633;28;20071;-65
2022/05/24 07:24:51;;;;;;;1.08;0.73;;;13.90;86.70;;;;;;5083909;28;20039;-65
2022/05/24 07:27:19;;;;;;;0.00;0.00;;;13.90;86.70;;;;;;5073998;28;20044;-66
2022/05/24 07:29:44;;;;;;;0.00;0.00;;;14.00;86.50;;;;;;5081783;28;20040;-65
2022/05/24 07:32:10;;;;;;;0.00;0.00;;;14.00;86.60;;;;;;5089419;28;20032;-65
2022/05/24 07:34:37;;;;;;;0.00;0.00;;;14.10;86.50;;;;;;5076805;28;20127;-66
2022/05/24 07:37:04;;;;;;;0.20;0.20;;;14.10;86.70;;;;;;5075778;28;20038;-65
2022/05/24 07:39:30;;;;;;;0.00;0.00;;;14.10;86.70;;;;;;5072439;28;20504;-65
2022/05/24 07:47:31;;;;;;;0.00;0.00;;;14.20;86.60;;;;;;5070204;28;20429;-68
2022/05/24 07:49:57;;;;;;;0.00;0.00;;;14.30;86.40;;;;;;5073939;28;20046;-67
2022/05/24 07:52:23;;;;;;;0.10;0.10;;;14.30;86.30;;;;;;5079810;28;20643;-66
2022/05/24 07:54:49;;;;;;;0.10;0.10;;;14.30;86.10;;;;;;5081187;28;20029;-66
2022/05/24 07:57:14;;;;;;;0.00;0.00;;;14.50;86.00;;;;;;5086664;28;20041;-65
2022/05/24 07:59:43;;;;;;;0.00;0.00;;;14.50;85.60;;;;;;5091347;28;20452;-66
2022/05/24 08:02:09;;;;;;;0.00;0.00;;;14.40;85.10;;;;;;5088210;28;20044;-66
2022/05/24 08:04:34;;;;;;;0.00;0.00;;;14.40;85.30;;;;;;5080975;28;20097;-65
2022/05/24 08:07:01;;;;;;;0.00;0.00;;;14.30;85.10;;;;;;5069519;28;20136;-65
2022/05/24 08:09:35;;;;;;;0.00;0.00;;;14.30;85.10;;;;;;5086165;27;20463;-66
2022/05/24 08:12:00;;;;;;;0.00;0.00;;;14.30;85.40;;;;;;5081985;28;20041;-66
2022/05/24 08:14:26;;;;;;;0.00;0.00;;;14.20;85.30;;;;;;5070915;28;20095;-66
2022/05/24 08:16:51;;;;;;;0.03;0.03;;;14.20;85.20;;;;;;5065877;28;20037;-66
2022/05/24 08:19:17;;;;;;;0.00;0.00;;;14.10;85.20;;;;;;5065873;28;20044;-66
2022/05/24 08:21:42;;;;;;;0.20;0.20;;;14.10;85.00;;;;;;5064887;28;20575;-67
2022/05/24 08:24:08;;;;;;;0.00;0.00;;;14.10;85.30;;;;;;5066292;28;20039;-67
2022/05/24 08:26:36;;;;;;;0.00;0.00;;;14.00;85.60;;;;;;5065982;28;20051;-65
2022/05/24 08:29:03;;;;;;;0.00;0.00;;;14.00;86.20;;;;;;5065753;28;20049;-66
2022/05/24 08:31:29;;;;;;;0.00;0.00;;;13.80;85.40;;;;;;5065890;28;20075;-67
2022/05/24 08:33:54;;;;;;;0.00;0.00;;;13.60;85.30;;;;;;5065633;28;20461;-67
2022/05/24 08:36:20;;;;;;;0.03;0.03;;;13.30;85.50;;;;;;5065924;28;20112;-67
2022/05/24 08:38:45;;;;;;;0.00;0.00;;;13.20;86.00;;;;;;5065114;28;20052;-67
2022/05/24 08:41:19;;;;;;;0.00;0.00;;;13.10;86.30;;;;;;5065884;28;20045;-66
2022/05/24 08:43:58;;;;;;;0.35;0.32;;;13.10;86.80;;;;;;5065229;28;20083;-66
2022/05/24 08:49:18;;;;;;;0.10;0.10;;;13.10;87.70;;;;;;5044964;28;20065;-67
2022/05/24 08:51:56;;;;;;;0.00;0.00;;;13.10;88.00;;;;;;5045651;28;20084;-66
2022/05/24 08:54:36;;;;;;;0.00;0.00;;;13.20;88.60;;;;;;5045433;28;20049;-68
2022/05/24 08:57:06;;;;;;;0.00;0.00;;;13.20;88.80;;;;;;5046194;28;20780;-66
2022/05/24 08:59:39;;;;;;;0.00;0.00;;;13.30;89.00;;;;;;5046523;28;20065;-66
2022/05/24 09:02:08;;;;;;;0.00;0.00;;;13.40;89.10;;;;;;5045911;28;20494;-66
2022/05/24 09:04:34;;;;;;;0.00;0.00;;;13.50;89.10;;;;;;5047012;28;20043;-66
2022/05/24 09:07:15;;;;;;;0.00;0.00;;;13.60;89.00;;;;;;5046090;28;20405;-65
2022/05/24 09:09:56;;;;;;;0.00;0.00;;;13.70;89.00;;;;;;5046350;28;20053;-66
2022/05/24 09:12:30;;;;;;;0.00;0.00;;;13.90;88.90;;;;;;5039490;28;20045;-66
2022/05/24 09:15:06;;;;;;;0.00;0.00;;;14.00;88.70;;;;;;5045850;28;20053;-66
2022/05/24 09:17:52;;;;;;;0.00;0.00;;;14.10;88.60;;;;;;5046995;28;20079;-67
2022/05/24 09:20:31;;;;;;;0.00;0.00;;;14.10;86.40;;;;;;5016952;28;20068;-66
2022/05/24 09:23:18;;;;;;;0.00;0.00;;;14.20;87.00;;;;;;5027956;28;20049;-67
2022/05/24 09:25:58;;;;;;;0.00;0.00;;;14.20;86.40;;;;;;5032756;28;20044;-66
2022/05/24 09:28:58;;;;;;;0.00;0.00;;;14.30;85.50;;;;;;5030143;28;20184;-66
2022/05/24 09:31:31;;;;;;;0.00;0.00;;;14.40;84.80;;;;;;5033473;28;20148;-68
2022/05/24 09:34:00;;;;;;;0.00;0.00;;;14.60;84.70;;;;;;5033158;28;20049;-67
2022/05/24 09:36:55;;;;;;;0.00;0.00;;;14.60;83.70;;;;;;5032339;28;20103;-67
2022/05/24 09:39:20;;;;;;;0.00;0.00;;;14.70;83.80;;;;;;5028095;28;20128;-66
2022/05/24 09:42:05;;;;;;;0.00;0.00;;;14.80;83.90;;;;;;5032130;28;20177;-67
2022/05/24 09:44:46;;;;;;;0.00;0.00;;;14.90;83.40;;;;;;5039928;28;20810;-67
2022/05/24 09:47:24;;;;;;;0.00;0.00;;;14.80;82.20;;;;;;5035019;28;20052;-66
2022/05/24 09:49:50;;;;;;;0.08;0.08;;;14.70;82.70;;;;;;5052602;28;20141;-66
2022/05/24 09:52:16;;;;;;;0.00;0.00;;;14.60;83.30;;;;;;5052569;28;20472;-67
2022/05/24 09:54:55;;;;;;;0.00;0.00;;;14.50;83.60;;;;;;5052293;28;20170;-67
2022/05/24 09:57:24;;;;;;;0.00;0.00;;;14.50;83.80;;;;;;5046996;28;20065;-67
2022/05/24 10:00:23;;;;;;;0.00;0.00;;;14.30;82.60;;;;;;5032481;28;20042;-67
2022/05/24 10:03:02;;;;;;;0.00;0.00;;;14.50;83.20;;;;;;5033287;28;20186;-68
2022/05/24 10:05:29;;;;;;;1.55;1.38;;;14.50;82.80;;;;;;5032529;28;20494;-67
2022/05/24 10:08:13;;;;;;;0.00;0.00;;;14.60;83.10;;;;;;5012546;28;20089;-67
2022/05/24 10:10:46;;;;;;;0.00;0.00;;;14.50;83.40;;;;;;5030496;28;20041;-67
2022/05/24 10:13:34;;;;;;;0.00;0.00;;;14.40;83.50;;;;;;5032277;28;20071;-67
2022/05/24 10:16:27;;;;;;;0.00;0.00;;;14.30;82.30;;;;;;5030576;28;20037;-67
2022/05/24 10:19:11;;;;;;;0.00;0.00;;;14.50;83.60;;;;;;5012254;28;20188;-67
2022/05/24 10:21:44;;;;;;;0.00;0.00;;;14.70;81.80;;;;;;5030700;28;20132;-67
2022/05/24 10:24:15;;;;;;;0.00;0.00;;;14.90;82.40;;;;;;5027382;28;20398;-68
2022/05/24 10:27:21;;;;;;;0.00;0.00;;;15.00;81.20;;;;;;5022541;28;20633;-67
2022/05/24 10:29:54;;;;;;;0.00;0.00;;;15.00;80.80;;;;;;5012541;28;20100;-67
2022/05/24 10:38:44;;;;;;;0.03;0.03;;;14.30;80.70;;;;;;5030752;28;20049;-67
2022/05/24 10:41:30;;;;;;;0.00;0.00;;;13.80;82.60;;;;;;5030496;28;20419;-67
2022/05/24 10:44:02;;;;;;;0.00;0.00;;;13.60;83.80;;;;;;5029971;28;20050;-67
2022/05/24 10:46:40;;;;;;;0.00;0.00;;;13.60;83.10;;;;;;5030294;28;20450;-67
2022/05/24 10:49:27;;;;;;;0.00;0.00;;;13.50;83.30;;;;;;5030455;28;20575;-67
2022/05/24 10:52:03;;;;;;;0.00;0.00;;;13.60;83.70;;;;;;5021165;28;20053;-66
2022/05/24 10:54:58;;;;;;;0.00;0.00;;;13.70;83.90;;;;;;5012294;28;20041;-68
2022/05/24 10:57:37;;;;;;;0.00;0.00;;;13.80;83.20;;;;;;5030109;28;21084;-67
2022/05/24 11:00:12;;;;;;;0.00;0.00;;;14.00;81.50;;;;;;5028584;28;20157;-68
2022/05/24 11:03:07;;;;;;;0.00;0.00;;;14.10;81.60;;;;;;5028403;28;20528;-68
2022/05/24 11:05:46;;;;;;;0.00;0.00;;;14.10;80.50;;;;;;5029070;28;20037;-67
2022/05/24 11:08:55;;;;;;;0.00;0.00;;;14.30;80.10;;;;;;5030438;28;20044;-67
2022/05/24 11:11:40;;;;;;;0.00;0.00;;;14.30;78.30;;;;;;5014845;28;20554;-68
2022/05/24 11:14:31;;;;;;;0.00;0.00;;;14.50;79.00;;;;;;5023217;28;20515;-67
2022/05/24 11:16:57;;;;;;;0.00;0.00;;;14.60;79.60;;;;;;5018698;28;20136;-68
2022/05/24 11:19:23;;;;;;;0.00;0.00;;;14.60;77.40;;;;;;5029191;28;20124;-68
2022/05/24 11:22:04;;;;;;;0.75;0.70;;;14.40;76.80;;;;;;5029575;28;20092;-68
2022/05/24 11:25:03;;;;;;;0.10;0.10;;;14.60;78.10;;;;;;5029951;28;20057;-69
2022/05/24 11:27:39;;;;;;;0.00;0.00;;;14.50;78.60;;;;;;5028305;28;20045;-70
2022/05/24 11:30:25;;;;;;;0.00;0.00;;;14.50;77.70;;;;;;5028196;28;20124;-69
2022/05/24 11:33:10;;;;;;;0.00;0.00;;;14.40;78.00;;;;;;5020561;28;20107;-69
2022/05/24 11:35:50;;;;;;;0.10;0.10;;;14.40;79.20;;;;;;5023510;28;20417;-69
2022/05/24 11:38:22;;;;;;;0.00;0.00;;;14.50;77.30;;;;;;5016871;28;20048;-68
2022/05/24 11:41:19;;;;;;;0.00;0.00;;;14.60;76.40;;;;;;5024176;28;20087;-68
2022/05/24 11:43:44;;;;;;;2.15;1.95;;;14.60;75.50;;;;;;5014044;28;20050;-70
2022/05/24 11:46:37;;;;;;;0.00;0.00;;;14.50;76.10;;;;;;5012429;28;20044;-68
2022/05/24 11:49:05;;;;;;;0.00;0.00;;;14.30;77.30;;;;;;5011905;28;20057;-68
2022/05/24 11:51:46;;;;;;;0.00;0.00;;;14.20;76.60;;;;;;5027045;28;20045;-68
2022/05/24 11:54:18;;;;;;;0.00;0.00;;;14.20;76.10;;;;;;5025926;28;20037;-66
2022/05/24 11:57:01;;;;;;;;;;;14.10;76.80;;;;;;5022458;28;20526;-67
2022/05/24 11:59:48;;;;;;;0.00;0.00;;;14.30;77.00;;;;;;5028913;28;19943;-66
2022/05/24 12:02:19;;;;;;;0.00;0.00;;;14.60;76.30;;;;;;5029328;28;20041;-67
2022/05/24 12:07:58;;;;;;;0.00;0.00;;;14.60;73.30;;;;;;5023666;28;20053;-67
2022/05/24 12:10:24;;;;;;;0.10;0.10;;;14.60;74.70;;;;;;5026984;28;20136;-67
2022/05/24 12:12:53;;;;;;;0.00;0.00;;;14.60;74.70;;;;;;5013088;28;20184;-75
2022/05/24 12:15:34;;;;;;;0.00;0.00;;;14.60;73.90;;;;;;5012796;28;20053;-71
2022/05/24 12:17:59;;;;;;;0.00;0.00;;;14.60;75.10;;;;;;5021076;28;20054;-69
2022/05/24 12:20:34;;;;;;;0.00;0.00;;;14.60;74.90;;;;;;5011415;28;20568;-69
2022/05/24 12:23:29;;;;;;;0.00;0.00;;;14.80;75.50;;;;;;5027166;28;20037;-68
2022/05/24 12:26:03;;;;;;;0.13;0.13;;;14.90;74.30;;;;;;5017343;28;20061;-68
2022/05/24 12:28:37;;;;;;;0.10;0.10;;;15.10;75.60;;;;;;5025546;28;20049;-68
2022/05/24 12:31:18;;;;;;;0.00;0.00;;;15.40;75.80;;;;;;5020821;28;20048;-68
2022/05/24 12:33:45;;;;;;;0.00;0.00;;;15.60;74.00;;;;;;5023195;28;20081;-68
2022/05/24 12:36:25;;;;;;;0.00;0.00;;;15.80;71.90;;;;;;5026340;28;20378;-68
2022/05/24 12:38:58;;;;;;;0.00;0.00;;;15.70;70.40;;;;;;5019678;28;20077;-68
2022/05/24 12:41:33;;;;;;;0.00;0.00;;;15.60;70.90;;;;;;5023199;28;20491;-68
2022/05/24 12:44:15;;;;;;;0.00;0.00;;;15.40;71.10;;;;;;5027733;28;20045;-67
2022/05/24 12:46:48;;;;;;;0.00;0.00;;;15.30;73.10;;;;;;5024893;28;20037;-68
2022/05/24 12:49:23;;;;;;;0.00;0.00;;;15.30;74.10;;;;;;5048593;28;20053;-67
2022/05/24 12:51:54;;;;;;;0.00;0.00;;;15.20;73.00;;;;;;5031468;28;20041;-68
2022/05/24 12:54:32;;;;;;;0.10;0.10;;;15.50;72.40;;;;;;5029222;28;20494;-68
2022/05/24 12:57:04;;;;;;;0.00;0.00;;;15.50;72.10;;;;;;5031246;28;20049;-68
2022/05/24 12:59:36;;;;;;;0.00;0.00;;;15.50;71.10;;;;;;5024989;28;20046;-67
2022/05/24 13:02:30;;;;;;;0.00;0.00;;;15.40;71.10;;;;;;5031157;28;20052;-67
2022/05/24 13:05:08;;;;;;;0.10;0.10;;;15.20;71.40;;;;;;5029325;28;20091;-67
2022/05/24 13:07:41;;;;;;;0.00;0.00;;;15.20;72.20;;;;;;5028757;28;20107;-67
2022/05/24 13:10:22;;;;;;;0.00;0.00;;;15.40;72.80;;;;;;5031578;28;20413;-67
2022/05/24 13:12:51;;;;;;;0.00;0.00;;;15.60;72.40;;;;;;5031982;28;20046;-67
2022/05/24 13:15:20;;;;;;;0.00;0.00;;;15.80;70.60;;;;;;5031381;28;20037;-67
2022/05/24 13:17:51;;;;;;;0.00;0.00;;;15.90;68.80;;;;;;5031498;28;20136;-67
2022/05/24 13:20:17;;;;;;;0.00;0.00;;;15.90;70.60;;;;;;5031457;28;20046;-68
2022/05/24 13:22:52;;;;;;;0.00;0.00;;;16.00;69.90;;;;;;5031579;28;20060;-67
2022/05/24 13:25:28;;;;;;;0.00;0.00;;;16.10;70.20;;;;;;5031473;28;20498;-66
2022/05/24 13:28:04;;;;;;;0.00;0.00;;;16.00;71.70;;;;;;5029394;28;20125;-66
2022/05/24 13:33:46;;;;;;;0.00;0.00;;;16.00;69.40;;;;;;5029265;28;20510;-67
2022/05/24 13:36:23;;;;;;;0.00;0.00;;;15.80;70.40;;;;;;5030021;28;20387;-67
2022/05/24 13:39:04;;;;;;;0.00;0.00;;;15.70;71.40;;;;;;5030610;28;20041;-67
2022/05/24 13:41:35;;;;;;;0.00;0.00;;;15.50;71.60;;;;;;5030872;28;20049;-68
2022/05/24 13:44:18;;;;;;;0.00;0.00;;;15.30;72.30;;;;;;5031006;28;21333;-68
2022/05/24 13:46:52;;;;;;;0.00;0.00;;;15.40;72.20;;;;;;5031025;28;20045;-68
2022/05/24 13:49:31;;;;;;;0.00;0.00;;;15.30;71.70;;;;;;5027993;28;20079;-67